Time;durP1;ratioP1;P1;durP2;ratioP2;P2;SDS_P1;SDS_P2;PMS_P1;PMS_P2;Temp;Humidity;BMP_temperature;BMP_pressure;BME280_temperature;BME280_humidity;BME280_pressure;Samples;Min_cycle;Max_cycle;Signal;HPM_P1;HPM_P2
2023/04/29 00:00:46;;;;;;;11.63;7.80;;;12.80;1.00;;;;;;5076380;28;20464;-66
2023/04/29 00:03:12;;;;;;;9.60;8.70;;;12.90;1.00;;;;;;5076390;28;20561;-66
2023/04/29 00:05:39;;;;;;;14.27;9.03;;;12.90;1.00;;;;;;5076622;28;20474;-68
2023/04/29 00:08:06;;;;;;;8.10;7.30;;;12.90;1.00;;;;;;5076572;28;20535;-67
2023/04/29 00:10:33;;;;;;;8.63;7.67;;;13.00;1.00;;;;;;5076800;28;20509;-66
2023/04/29 00:13:00;;;;;;;8.90;8.00;;;12.80;1.00;;;;;;5076442;28;20490;-67
2023/04/29 00:15:27;;;;;;;10.57;8.70;;;12.90;1.00;;;;;;5076750;28;20507;-67
2023/04/29 00:17:55;;;;;;;8.43;7.57;;;13.00;1.00;;;;;;5076323;28;20450;-67
2023/04/29 00:20:22;;;;;;;9.17;8.37;;;13.00;1.00;;;;;;5076340;28;20845;-67
2023/04/29 00:22:49;;;;;;;9.10;8.10;;;13.10;1.00;;;;;;5076228;28;20458;-67
2023/04/29 00:25:16;;;;;;;10.60;8.23;;;13.00;1.00;;;;;;5076393;28;20461;-67
2023/04/29 00:27:43;;;;;;;11.60;8.30;;;13.00;1.00;;;;;;5076313;28;20474;-68
2023/04/29 00:30:10;;;;;;;10.33;8.97;;;13.00;1.00;;;;;;5075962;28;20624;-67
2023/04/29 00:32:37;;;;;;;11.03;9.83;;;13.00;1.00;;;;;;5075827;28;20462;-66
2023/04/29 00:35:06;;;;;;;9.87;8.97;;;12.90;1.00;;;;;;5075866;28;20464;-68
2023/04/29 00:37:33;;;;;;;11.70;8.30;;;12.90;1.00;;;;;;5075626;28;20455;-67
2023/04/29 00:40:00;;;;;;;9.60;7.97;;;13.00;1.00;;;;;;5075424;28;20477;-67
2023/04/29 00:42:27;;;;;;;10.00;8.47;;;13.00;1.00;;;;;;5075569;28;20458;-67
2023/04/29 00:44:54;;;;;;;10.33;8.77;;;12.90;1.00;;;;;;5075946;28;20464;-66
2023/04/29 00:47:21;;;;;;;11.47;8.10;;;12.80;1.00;;;;;;5075812;28;20450;-67
2023/04/29 00:49:48;;;;;;;9.27;8.37;;;12.80;1.00;;;;;;5075765;28;20519;-67
2023/04/29 00:52:18;;;;;;;9.33;8.37;;;12.70;1.00;;;;;;5075450;28;20950;-68
2023/04/29 00:54:45;;;;;;;9.20;8.40;;;12.60;1.00;;;;;;5075510;28;20460;-67
2023/04/29 00:57:12;;;;;;;10.27;8.80;;;12.60;39.70;;;;;;5075937;28;20460;-67
2023/04/29 00:59:39;;;;;;;8.80;8.00;;;12.60;1.00;;;;;;5075737;28;20507;-67
2023/04/29 01:02:06;;;;;;;9.70;8.70;;;12.70;84.30;;;;;;5076319;28;20450;-68
2023/04/29 01:04:33;;;;;;;10.33;8.60;;;12.70;1.00;;;;;;5076117;28;20826;-67
2023/04/29 01:07:09;;;;;;;10.30;9.20;;;12.70;1.00;;;;;;5075997;28;20551;-67
2023/04/29 01:09:49;;;;;;;8.73;7.93;;;12.70;38.50;;;;;;5075924;28;20466;-67
2023/04/29 01:12:25;;;;;;;9.37;8.37;;;12.80;80.40;;;;;;5075652;28;20453;-68
2023/04/29 01:15:03;;;;;;;12.10;9.20;;;12.90;1.00;;;;;;5075596;28;20839;-68
2023/04/29 01:17:36;;;;;;;9.40;8.13;;;12.90;1.00;;;;;;5075292;28;20525;-68
2023/04/29 01:20:04;;;;;;;11.23;8.10;;;13.00;1.00;;;;;;5075827;28;20525;-68
2023/04/29 01:22:31;;;;;;;9.97;8.97;;;13.10;1.00;;;;;;5075856;28;20540;-68
2023/04/29 01:24:59;;;;;;;11.33;9.30;;;13.10;99.90;;;;;;5075221;28;20459;-68
2023/04/29 01:27:31;;;;;;;10.63;9.53;;;13.00;1.00;;;;;;5075228;28;20542;-67
2023/04/29 01:30:05;;;;;;;10.90;9.80;;;12.70;99.90;;;;;;5075280;28;20454;-68
2023/04/29 01:32:43;;;;;;;14.07;10.63;;;12.60;99.90;;;;;;5074860;28;20438;-69
2023/04/29 01:35:23;;;;;;;13.30;12.00;;;12.50;99.90;;;;;;5074958;28;20931;-68
2023/04/29 01:37:57;;;;;;;14.70;12.03;;;12.20;1.00;;;;;;5074813;28;20445;-67
2023/04/29 01:40:32;;;;;;;13.93;12.17;;;12.00;1.00;;;;;;5075308;28;20438;-69
2023/04/29 01:43:02;;;;;;;14.43;12.97;;;12.00;99.90;;;;;;5074956;28;20529;-69
2023/04/29 01:45:29;;;;;;;17.70;13.80;;;12.00;99.90;;;;;;5075177;28;20446;-68
2023/04/29 01:47:58;;;;;;;15.17;12.00;;;11.90;99.90;;;;;;5074752;28;20565;-68
2023/04/29 01:50:25;;;;;;;17.73;14.33;;;11.90;99.90;;;;;;5074650;28;20486;-68
2023/04/29 01:52:52;;;;;;;15.67;13.90;;;11.90;99.90;;;;;;5074670;28;20454;-68
2023/04/29 01:55:20;;;;;;;18.60;15.00;;;11.80;99.90;;;;;;5074519;28;20458;-68
2023/04/29 01:57:48;;;;;;;16.30;14.60;;;11.60;99.90;;;;;;5074491;28;20469;-68
2023/04/29 02:00:16;;;;;;;16.87;15.17;;;11.50;99.90;;;;;;5074529;28;20553;-68
2023/04/29 02:02:43;;;;;;;17.87;15.10;;;11.50;99.90;;;;;;5074516;28;20462;-67
2023/04/29 02:05:10;;;;;;;21.80;15.77;;;11.50;99.90;;;;;;5073920;28;20454;-68
2023/04/29 02:07:37;;;;;;;22.20;15.93;;;11.40;99.90;;;;;;5074800;28;20855;-68
2023/04/29 02:10:04;;;;;;;17.93;15.43;;;11.30;99.90;;;;;;5074411;28;20460;-68
2023/04/29 02:12:31;;;;;;;19.47;17.37;;;11.30;99.90;;;;;;5074513;28;20545;-68
2023/04/29 02:15:00;;;;;;;20.70;16.77;;;11.30;99.90;;;;;;5074106;28;20473;-67
2023/04/29 02:17:26;;;;;;;24.03;17.87;;;11.30;99.90;;;;;;5074298;28;20540;-68
2023/04/29 02:19:54;;;;;;;20.53;18.00;;;11.20;99.90;;;;;;5074489;28;20442;-68
2023/04/29 02:22:21;;;;;;;20.73;17.47;;;11.30;99.90;;;;;;5074297;28;20465;-68
2023/04/29 02:24:48;;;;;;;20.50;17.83;;;11.30;99.90;;;;;;5074443;28;20454;-68
2023/04/29 02:27:15;;;;;;;21.50;18.97;;;11.30;99.90;;;;;;5073970;28;20476;-67
2023/04/29 02:29:42;;;;;;;22.13;18.40;;;11.30;99.90;;;;;;5074209;28;21049;-68
2023/04/29 02:32:10;;;;;;;22.77;18.97;;;11.20;99.90;;;;;;5074468;28;20454;-68
2023/04/29 02:34:37;;;;;;;21.73;19.40;;;11.20;99.90;;;;;;5074347;28;20462;-68
2023/04/29 02:37:04;;;;;;;20.80;18.70;;;11.20;99.90;;;;;;5074089;28;20949;-68
2023/04/29 02:39:31;;;;;;;25.20;21.00;;;11.20;99.90;;;;;;5073790;28;20497;-69
2023/04/29 02:41:58;;;;;;;26.43;21.10;;;11.20;99.90;;;;;;5074020;28;20454;-68
2023/04/29 02:44:25;;;;;;;24.93;21.20;;;11.20;99.90;;;;;;5074662;28;20486;-67
2023/04/29 02:46:52;;;;;;;24.93;20.93;;;11.10;99.90;;;;;;5074066;28;20849;-67
2023/04/29 02:49:20;;;;;;;22.97;19.63;;;11.10;99.90;;;;;;5073961;28;20478;-68
2023/04/29 02:51:48;;;;;;;22.27;19.97;;;11.10;99.90;;;;;;5074297;28;20469;-67
2023/04/29 02:54:15;;;;;;;23.23;20.80;;;11.10;99.90;;;;;;5073846;28;20462;-67
2023/04/29 02:56:43;;;;;;;23.17;20.67;;;11.10;99.90;;;;;;5074398;28;20541;-68
2023/04/29 02:59:10;;;;;;;24.07;20.60;;;11.10;99.90;;;;;;5073671;28;20454;-66
2023/04/29 03:01:37;;;;;;;23.20;19.10;;;11.10;99.90;;;;;;5074234;28;20534;-68
2023/04/29 03:04:05;;;;;;;21.90;19.50;;;11.10;99.90;;;;;;5073882;28;20450;-67
2023/04/29 03:06:33;;;;;;;24.90;20.20;;;11.00;99.90;;;;;;5074132;28;20485;-67
2023/04/29 03:09:00;;;;;;;23.77;20.47;;;11.00;99.90;;;;;;5073697;28;20506;-68
2023/04/29 03:11:27;;;;;;;22.70;20.30;;;11.10;99.90;;;;;;5073706;28;20934;-67
2023/04/29 03:13:54;;;;;;;25.27;20.97;;;11.00;99.90;;;;;;5073852;28;20458;-67
2023/04/29 03:16:22;;;;;;;27.30;21.90;;;11.00;99.90;;;;;;5075727;28;20458;-67
2023/04/29 03:18:49;;;;;;;24.27;20.93;;;11.00;99.90;;;;;;5077455;28;20461;-67
2023/04/29 03:21:16;;;;;;;23.73;21.07;;;11.00;99.90;;;;;;5077630;28;20549;-68
2023/04/29 03:23:44;;;;;;;26.47;22.47;;;11.10;99.90;;;;;;5077174;28;20458;-68
2023/04/29 03:26:11;;;;;;;28.50;21.83;;;11.00;99.90;;;;;;5077533;28;20469;-67
2023/04/29 03:28:38;;;;;;;23.73;21.20;;;11.00;99.90;;;;;;5077032;28;20565;-68
2023/04/29 03:31:05;;;;;;;27.33;21.97;;;11.10;99.90;;;;;;5077298;28;20464;-68
2023/04/29 03:33:32;;;;;;;25.23;22.50;;;11.10;99.90;;;;;;5077241;28;20533;-68
2023/04/29 03:35:59;;;;;;;25.73;22.73;;;11.10;99.90;;;;;;5076939;28;20459;-68
2023/04/29 03:38:26;;;;;;;26.50;22.10;;;11.20;99.90;;;;;;5076851;28;20884;-68
2023/04/29 03:40:54;;;;;;;31.47;23.57;;;11.20;99.90;;;;;;5076995;28;20458;-68
2023/04/29 03:43:21;;;;;;;28.10;23.70;;;11.30;99.90;;;;;;5076656;28;20457;-68
2023/04/29 03:45:48;;;;;;;29.17;23.93;;;11.20;99.90;;;;;;5076875;28;20844;-67
2023/04/29 03:48:15;;;;;;;30.93;25.10;;;11.30;99.90;;;;;;5076613;28;20950;-68
2023/04/29 03:50:41;;;;;;;28.33;23.27;;;11.30;99.90;;;;;;5076455;28;20461;-68
2023/04/29 03:53:08;;;;;;;29.20;23.87;;;11.30;99.90;;;;;;5076797;28;20476;-68
2023/04/29 03:55:35;;;;;;;31.43;25.60;;;11.40;99.90;;;;;;5076395;28;20450;-68
2023/04/29 03:58:04;;;;;;;33.07;26.70;;;11.50;99.90;;;;;;5076415;28;20541;-67
2023/04/29 04:00:31;;;;;;;30.87;25.63;;;11.50;99.90;;;;;;5076626;28;20546;-68
2023/04/29 04:02:58;;;;;;;35.30;26.60;;;11.50;99.90;;;;;;5076394;28;20494;-68
2023/04/29 04:05:25;;;;;;;31.97;26.13;;;11.50;99.90;;;;;;5076665;28;20472;-68
2023/04/29 04:07:52;;;;;;;35.27;27.20;;;11.60;99.90;;;;;;5076476;28;20549;-69
2023/04/29 04:10:19;;;;;;;31.77;25.13;;;11.60;99.90;;;;;;5076498;28;20478;-68
2023/04/29 04:12:46;;;;;;;36.80;27.03;;;11.70;99.90;;;;;;5076334;28;20911;-68
2023/04/29 04:15:15;;;;;;;35.47;26.30;;;11.70;99.90;;;;;;5076525;28;20999;-67
2023/04/29 04:17:42;;;;;;;33.60;26.67;;;11.60;99.90;;;;;;5076103;28;20458;-68
2023/04/29 04:20:10;;;;;;;37.30;27.40;;;11.70;99.90;;;;;;5076073;28;20451;-68
2023/04/29 04:22:37;;;;;;;34.93;27.53;;;11.70;99.90;;;;;;5076266;28;20465;-67
2023/04/29 04:25:05;;;;;;;32.03;26.00;;;11.70;99.90;;;;;;5076136;28;20907;-68
2023/04/29 04:27:32;;;;;;;35.13;26.17;;;11.70;99.90;;;;;;5075958;28;20454;-68
2023/04/29 04:29:58;;;;;;;34.03;26.80;;;11.70;99.90;;;;;;5076153;28;20477;-67
2023/04/29 04:32:27;;;;;;;32.83;26.20;;;11.80;99.90;;;;;;5076241;28;20919;-68
2023/04/29 04:34:54;;;;;;;36.80;28.07;;;11.80;99.90;;;;;;5076132;28;20454;-69
2023/04/29 04:37:21;;;;;;;35.07;27.97;;;11.80;99.90;;;;;;5077282;28;20454;-68
2023/04/29 04:39:48;;;;;;;33.30;26.40;;;11.90;99.90;;;;;;5077385;28;20822;-68
2023/04/29 04:42:15;;;;;;;33.30;27.10;;;11.90;99.90;;;;;;5075804;28;20458;-68
2023/04/29 04:44:42;;;;;;;35.27;27.60;;;11.90;99.90;;;;;;5075482;28;20992;-68
2023/04/29 04:47:10;;;;;;;35.40;26.87;;;12.00;99.90;;;;;;5075840;28;20553;-68
2023/04/29 04:49:38;;;;;;;32.73;26.17;;;12.10;99.90;;;;;;5075352;28;20485;-67
2023/04/29 04:52:05;;;;;;;36.43;27.57;;;12.10;99.90;;;;;;5075408;28;20458;-68
2023/04/29 04:54:32;;;;;;;36.83;27.63;;;12.10;99.90;;;;;;5075678;28;20513;-68
2023/04/29 04:56:59;;;;;;;35.00;27.73;;;12.10;99.90;;;;;;5075661;28;20910;-67
2023/04/29 04:59:26;;;;;;;35.97;27.60;;;12.20;99.90;;;;;;5075258;28;20462;-69
2023/04/29 05:01:53;;;;;;;39.03;27.67;;;12.20;99.90;;;;;;5075634;28;20493;-68
2023/04/29 05:04:20;;;;;;;37.10;28.80;;;12.20;99.90;;;;;;5075547;28;20458;-68
2023/04/29 05:06:48;;;;;;;40.73;27.87;;;12.10;99.90;;;;;;5075242;28;20561;-68
2023/04/29 05:09:15;;;;;;;35.63;27.20;;;12.20;99.90;;;;;;5075130;28;20561;-68
2023/04/29 05:11:42;;;;;;;40.23;30.07;;;12.10;99.90;;;;;;5074977;28;20980;-68
2023/04/29 05:14:09;;;;;;;42.07;29.73;;;12.10;99.90;;;;;;5075305;28;20867;-68
2023/04/29 05:16:36;;;;;;;44.63;30.10;;;12.10;99.90;;;;;;5075185;28;20537;-68
2023/04/29 05:19:03;;;;;;;43.73;31.70;;;12.00;99.90;;;;;;5075137;28;20925;-68
2023/04/29 05:21:30;;;;;;;41.37;29.27;;;12.00;99.90;;;;;;5074838;28;21010;-68
2023/04/29 05:23:58;;;;;;;41.57;30.20;;;12.00;99.90;;;;;;5075081;28;20454;-68
2023/04/29 05:26:25;;;;;;;41.37;30.37;;;12.10;99.90;;;;;;5074660;28;20974;-68
2023/04/29 05:28:52;;;;;;;43.67;29.87;;;12.10;99.90;;;;;;5074951;28;20462;-68
2023/04/29 05:31:19;;;;;;;40.67;30.47;;;12.00;99.90;;;;;;5075129;28;20545;-68
2023/04/29 05:33:45;;;;;;;41.40;28.60;;;12.10;99.90;;;;;;5075130;28;20512;-68
2023/04/29 05:36:12;;;;;;;38.23;27.47;;;12.10;99.90;;;;;;5075028;28;20545;-68
2023/04/29 05:38:39;;;;;;;38.63;27.90;;;12.10;99.90;;;;;;5073925;28;20481;-68
2023/04/29 05:41:07;;;;;;;38.27;28.30;;;12.10;99.90;;;;;;5074967;28;20541;-68
2023/04/29 05:43:34;;;;;;;39.70;29.07;;;12.10;99.90;;;;;;5074402;28;20502;-68
2023/04/29 05:46:01;;;;;;;36.67;27.27;;;12.00;99.90;;;;;;5074875;28;20549;-68
2023/04/29 05:48:28;;;;;;;40.07;28.10;;;12.00;99.90;;;;;;5074862;28;20845;-69
2023/04/29 05:50:55;;;;;;;38.60;27.37;;;12.00;99.90;;;;;;5074495;28;20489;-68
2023/04/29 05:53:22;;;;;;;39.80;27.17;;;12.00;99.90;;;;;;5074833;28;20455;-67
2023/04/29 05:55:49;;;;;;;40.17;27.30;;;12.10;99.90;;;;;;5075057;28;20464;-67
2023/04/29 05:58:18;;;;;;;46.70;28.37;;;12.00;99.90;;;;;;5075392;28;20462;-68
2023/04/29 06:00:45;;;;;;;47.80;30.07;;;12.00;99.90;;;;;;5074939;28;20530;-67
2023/04/29 06:03:12;;;;;;;42.60;29.67;;;12.00;99.90;;;;;;5074917;28;20458;-66
2023/04/29 06:05:39;;;;;;;38.43;27.77;;;11.90;99.90;;;;;;5074350;28;20458;-68
2023/04/29 06:08:06;;;;;;;41.20;29.10;;;12.00;99.90;;;;;;5074587;28;20915;-68
2023/04/29 06:10:34;;;;;;;40.33;28.87;;;12.00;99.90;;;;;;5074812;28;20488;-68
2023/04/29 06:13:01;;;;;;;46.33;28.67;;;11.90;99.90;;;;;;5074530;28;20519;-67
2023/04/29 06:15:29;;;;;;;46.03;29.70;;;12.00;99.90;;;;;;5074409;28;20915;-67
2023/04/29 06:17:56;;;;;;;45.90;28.63;;;11.90;99.90;;;;;;5074688;28;20486;-67
2023/04/29 06:20:23;;;;;;;44.83;28.63;;;11.90;99.90;;;;;;5074416;28;20533;-68
2023/04/29 06:22:50;;;;;;;44.40;28.40;;;12.00;99.90;;;;;;5074657;28;20486;-66
2023/04/29 06:25:17;;;;;;;45.47;26.80;;;12.00;99.90;;;;;;5074710;28;20494;-67
2023/04/29 06:27:44;;;;;;;46.87;29.30;;;11.90;99.90;;;;;;5074755;28;20975;-68
2023/04/29 06:30:11;;;;;;;45.80;28.27;;;12.00;99.90;;;;;;5074196;28;20970;-66
2023/04/29 06:32:40;;;;;;;45.17;28.30;;;12.10;99.90;;;;;;5074480;28;20454;-67
2023/04/29 06:35:08;;;;;;;39.23;26.57;;;12.00;99.90;;;;;;5074662;28;20454;-68
2023/04/29 06:37:34;;;;;;;45.57;26.70;;;12.00;99.90;;;;;;5074262;28;21014;-68
2023/04/29 06:40:02;;;;;;;43.27;27.17;;;12.00;99.90;;;;;;5074140;28;20481;-67
2023/04/29 06:42:29;;;;;;;43.60;26.73;;;11.90;99.90;;;;;;5074079;28;20504;-68
2023/04/29 06:44:56;;;;;;;40.07;24.23;;;11.90;99.90;;;;;;5074115;28;20464;-67
2023/04/29 06:47:23;;;;;;;40.00;25.83;;;11.90;99.90;;;;;;5074237;28;20492;-67
2023/04/29 06:49:51;;;;;;;38.90;24.13;;;11.90;99.90;;;;;;5075342;28;20510;-68
2023/04/29 06:52:18;;;;;;;42.00;25.27;;;11.90;99.90;;;;;;5077820;28;20469;-67
2023/04/29 06:54:45;;;;;;;46.17;25.43;;;11.90;99.90;;;;;;5077949;28;20458;-68
2023/04/29 06:57:12;;;;;;;34.73;23.23;;;12.00;99.90;;;;;;5077676;28;20480;-68
2023/04/29 06:59:39;;;;;;;38.53;22.70;;;12.00;99.90;;;;;;5077953;28;20453;-67
2023/04/29 07:02:06;;;;;;;30.97;21.60;;;11.90;99.90;;;;;;5077947;28;20538;-67
2023/04/29 07:04:33;;;;;;;37.23;23.63;;;11.90;99.90;;;;;;5077929;28;20853;-67
2023/04/29 07:07:01;;;;;;;38.13;25.10;;;11.90;99.90;;;;;;5077688;28;20494;-68
2023/04/29 07:09:28;;;;;;;32.40;23.00;;;11.90;99.90;;;;;;5077517;28;20540;-68
2023/04/29 07:11:55;;;;;;;36.90;24.10;;;11.90;99.90;;;;;;5078222;28;20458;-68
2023/04/29 07:14:22;;;;;;;35.00;23.70;;;11.90;99.90;;;;;;5077980;28;20553;-67
2023/04/29 07:16:53;;;;;;;40.50;21.80;;;11.90;99.90;;;;;;5078123;28;20457;-67
2023/04/29 07:19:20;;;;;;;35.17;23.53;;;11.90;99.90;;;;;;5077856;28;20450;-67
2023/04/29 07:21:47;;;;;;;39.80;24.13;;;11.90;99.90;;;;;;5078144;28;20465;-68
2023/04/29 07:24:15;;;;;;;37.60;24.50;;;12.00;99.90;;;;;;5077998;28;20541;-67
2023/04/29 07:26:43;;;;;;;39.47;24.57;;;11.90;99.90;;;;;;5077734;28;20914;-67
2023/04/29 07:29:10;;;;;;;37.80;24.87;;;11.90;99.90;;;;;;5077496;28;20469;-68
2023/04/29 07:31:37;;;;;;;35.60;25.30;;;11.90;99.90;;;;;;5077479;28;20482;-67
2023/04/29 07:34:04;;;;;;;32.27;24.17;;;11.90;99.90;;;;;;5077380;28;20465;-67
2023/04/29 07:36:31;;;;;;;33.80;23.30;;;11.80;99.90;;;;;;5076963;28;20490;-67
2023/04/29 07:38:59;;;;;;;29.87;23.20;;;11.70;99.90;;;;;;5076720;28;20581;-68
2023/04/29 07:41:27;;;;;;;34.60;24.10;;;11.80;99.90;;;;;;5077126;28;20553;-67
2023/04/29 07:43:54;;;;;;;33.40;24.50;;;11.90;99.90;;;;;;5077211;28;20457;-67
2023/04/29 07:46:21;;;;;;;32.67;24.10;;;11.80;99.90;;;;;;5077167;28;20454;-68
2023/04/29 07:48:48;;;;;;;34.60;24.30;;;11.80;99.90;;;;;;5077276;28;20455;-67
2023/04/29 07:51:15;;;;;;;28.60;22.63;;;11.80;99.90;;;;;;5076774;28;20489;-67
2023/04/29 07:53:42;;;;;;;22.30;18.87;;;11.80;99.90;;;;;;5077141;28;20458;-67
2023/04/29 07:56:09;;;;;;;24.40;20.40;;;11.80;99.90;;;;;;5077055;28;20465;-67
2023/04/29 07:58:37;;;;;;;26.60;20.50;;;11.80;99.90;;;;;;5076592;28;20454;-68
2023/04/29 08:01:09;;;;;;;25.80;21.23;;;11.80;99.90;;;;;;5076065;28;20451;-68
2023/04/29 08:03:36;;;;;;;28.37;21.30;;;11.80;99.90;;;;;;5076675;28;20545;-68
2023/04/29 08:06:03;;;;;;;22.37;19.47;;;11.80;99.90;;;;;;5076622;28;20531;-67
2023/04/29 08:08:30;;;;;;;24.07;18.63;;;11.90;99.90;;;;;;5076543;28;20464;-68
2023/04/29 08:10:57;;;;;;;23.03;18.93;;;11.80;99.90;;;;;;5076469;28;20478;-67
2023/04/29 08:13:24;;;;;;;19.90;17.70;;;11.80;99.90;;;;;;5076986;28;20466;-67
2023/04/29 08:15:52;;;;;;;16.93;14.93;;;11.80;99.90;;;;;;5076589;28;20450;-68
2023/04/29 08:18:20;;;;;;;18.80;16.27;;;11.70;99.90;;;;;;5076585;28;20537;-67
2023/04/29 08:20:48;;;;;;;16.63;14.93;;;11.60;99.90;;;;;;5076748;28;20899;-67
2023/04/29 08:23:15;;;;;;;18.13;16.20;;;11.60;99.90;;;;;;5075934;28;20465;-68
2023/04/29 08:25:43;;;;;;;18.97;15.70;;;11.60;99.90;;;;;;5076451;28;20829;-68
2023/04/29 08:28:10;;;;;;;20.43;18.13;;;11.60;99.90;;;;;;5076133;28;20454;-68
2023/04/29 08:30:39;;;;;;;19.80;16.47;;;11.70;99.90;;;;;;5075840;28;20573;-67
2023/04/29 08:33:08;;;;;;;19.17;17.10;;;11.60;99.90;;;;;;5075907;28;20493;-67
2023/04/29 08:35:36;;;;;;;20.17;18.07;;;11.60;99.90;;;;;;5075843;28;20465;-67
2023/04/29 08:38:05;;;;;;;20.30;18.00;;;11.70;99.90;;;;;;5075857;28;20482;-68
2023/04/29 08:40:34;;;;;;;22.33;18.30;;;11.60;99.90;;;;;;5076474;28;20442;-68
2023/04/29 08:43:02;;;;;;;21.43;17.13;;;11.60;99.90;;;;;;5076246;28;20570;-68
2023/04/29 08:45:30;;;;;;;23.03;19.40;;;11.60;99.90;;;;;;5076190;28;20540;-68
2023/04/29 08:47:58;;;;;;;20.67;18.57;;;11.60;99.90;;;;;;5075633;28;20494;-68
2023/04/29 08:50:28;;;;;;;21.43;19.13;;;11.60;99.90;;;;;;5075807;28;20914;-68
2023/04/29 08:52:55;;;;;;;24.50;18.20;;;11.60;99.90;;;;;;5075566;28;20503;-67
2023/04/29 08:55:22;;;;;;;21.37;18.67;;;11.60;99.90;;;;;;5075316;28;20911;-68
2023/04/29 08:57:50;;;;;;;23.50;19.37;;;11.50;99.90;;;;;;5075513;28;20462;-68
2023/04/29 09:00:18;;;;;;;27.30;20.13;;;11.50;99.90;;;;;;5075143;28;20454;-67
2023/04/29 09:02:49;;;;;;;29.03;20.80;;;11.50;99.90;;;;;;5075378;28;20469;-69
2023/04/29 09:05:16;;;;;;;28.10;21.43;;;11.40;99.90;;;;;;5075388;28;20442;-67
2023/04/29 09:07:45;;;;;;;29.17;21.03;;;11.30;99.90;;;;;;5075454;28;20466;-68
2023/04/29 09:10:13;;;;;;;27.43;21.20;;;11.30;99.90;;;;;;5074959;28;20479;-68
2023/04/29 09:12:40;;;;;;;30.87;21.33;;;11.30;99.90;;;;;;5075093;28;20484;-68
2023/04/29 09:15:08;;;;;;;29.73;23.03;;;11.30;99.90;;;;;;5075256;28;20791;-68
2023/04/29 09:17:39;;;;;;;30.00;22.40;;;11.30;99.90;;;;;;5075321;28;20848;-67
2023/04/29 09:20:27;;;;;;;31.80;23.77;;;11.30;99.90;;;;;;5075190;28;20536;-68
2023/04/29 09:22:56;;;;;;;33.23;23.10;;;11.30;99.90;;;;;;5075353;28;20454;-67
2023/04/29 09:25:23;;;;;;;37.07;25.80;;;11.30;99.90;;;;;;5074991;28;20458;-67
2023/04/29 09:27:50;;;;;;;38.87;25.80;;;11.20;99.90;;;;;;5075335;28;20458;-68
2023/04/29 09:30:18;;;;;;;32.37;23.50;;;11.10;99.90;;;;;;5075064;28;20569;-68
2023/04/29 09:32:46;;;;;;;34.70;25.20;;;11.20;99.90;;;;;;5075401;28;20466;-68
2023/04/29 09:35:24;;;;;;;34.63;24.87;;;11.10;99.90;;;;;;5075042;28;20466;-67
2023/04/29 09:37:52;;;;;;;37.37;25.57;;;11.10;99.90;;;;;;5074842;28;20465;-68
2023/04/29 09:40:31;;;;;;;36.30;26.23;;;11.10;99.90;;;;;;5075147;28;20449;-68
2023/04/29 09:42:58;;;;;;;37.83;26.40;;;11.10;99.90;;;;;;5075244;28;20448;-67
2023/04/29 09:45:36;;;;;;;42.77;28.37;;;11.00;99.90;;;;;;5074708;28;20480;-68
2023/04/29 09:48:04;;;;;;;44.37;29.77;;;11.10;99.90;;;;;;5074963;28;20824;-68
2023/04/29 09:50:31;;;;;;;43.70;29.43;;;11.10;99.90;;;;;;5074827;28;20627;-68
2023/04/29 09:52:58;;;;;;;47.87;33.50;;;11.00;99.90;;;;;;5074762;28;20454;-67
2023/04/29 09:55:25;;;;;;;57.13;35.57;;;11.00;99.90;;;;;;5074651;28;20760;-67
2023/04/29 09:57:54;;;;;;;53.17;35.90;;;10.90;99.90;;;;;;5074836;28;20504;-67
2023/04/29 10:00:20;;;;;;;49.57;34.07;;;10.90;99.90;;;;;;5074561;28;20919;-68
2023/04/29 10:02:48;;;;;;;59.50;38.10;;;10.90;99.90;;;;;;5074770;28;20858;-67
2023/04/29 10:05:16;;;;;;;54.67;36.77;;;10.90;99.90;;;;;;5074658;28;20458;-68
2023/04/29 10:07:43;;;;;;;56.30;36.60;;;10.90;99.90;;;;;;5074445;28;20520;-67
2023/04/29 10:10:12;;;;;;;52.70;36.63;;;11.00;99.90;;;;;;5074544;28;20454;-69
2023/04/29 10:12:41;;;;;;;55.63;36.50;;;11.00;99.90;;;;;;5074521;28;20446;-68
2023/04/29 10:15:19;;;;;;;53.43;35.00;;;11.10;99.90;;;;;;5074556;28;20515;-68
2023/04/29 10:17:49;;;;;;;50.83;34.27;;;11.20;99.90;;;;;;5074066;28;20445;-68
2023/04/29 10:20:22;;;;;;;52.30;37.10;;;11.20;99.90;;;;;;5074409;28;20822;-68
2023/04/29 10:22:51;;;;;;;54.10;37.77;;;11.20;99.90;;;;;;5074625;28;20435;-67
2023/04/29 10:25:19;;;;;;;49.60;36.53;;;11.20;99.90;;;;;;5078468;28;20449;-67
2023/04/29 10:27:47;;;;;;;46.57;34.50;;;11.30;99.90;;;;;;5080821;28;20446;-67
2023/04/29 10:30:18;;;;;;;45.10;34.00;;;11.20;99.90;;;;;;5079909;28;20545;-68
2023/04/29 10:32:45;;;;;;;50.00;36.33;;;11.30;99.90;;;;;;5080033;28;20525;-67
2023/04/29 10:35:13;;;;;;;50.73;34.33;;;11.40;99.90;;;;;;5079793;28;20464;-68
2023/04/29 10:37:40;;;;;;;43.53;32.70;;;11.40;99.90;;;;;;5080767;28;20926;-67
2023/04/29 10:40:14;;;;;;;45.93;32.90;;;11.40;99.90;;;;;;5081436;28;20464;-68
2023/04/29 10:42:45;;;;;;;41.23;32.80;;;11.40;99.90;;;;;;5080547;28;20889;-68
2023/04/29 10:45:21;;;;;;;45.67;33.40;;;11.50;99.90;;;;;;5081181;28;20434;-68
2023/04/29 10:48:13;;;;;;;44.47;33.50;;;11.60;99.90;;;;;;5082043;28;20454;-67
2023/04/29 10:50:57;;;;;;;38.93;31.53;;;11.70;99.90;;;;;;5082132;28;20464;-68
2023/04/29 10:53:24;;;;;;;36.50;29.80;;;11.70;99.90;;;;;;5080486;28;20494;-67
2023/04/29 10:55:58;;;;;;;35.37;28.83;;;11.80;99.90;;;;;;5081632;28;20530;-68
2023/04/29 10:58:42;;;;;;;31.60;27.10;;;11.90;99.90;;;;;;5081722;28;20529;-67
2023/04/29 11:01:13;;;;;;;32.77;27.67;;;12.00;99.90;;;;;;5081436;28;20906;-69
2023/04/29 11:03:53;;;;;;;31.50;27.30;;;12.10;99.90;;;;;;5082263;28;20525;-68
2023/04/29 11:06:23;;;;;;;33.97;24.97;;;12.20;99.90;;;;;;5081622;28;20521;-68
2023/04/29 11:09:01;;;;;;;30.00;24.73;;;12.30;99.90;;;;;;5081991;28;20478;-69
2023/04/29 11:11:44;;;;;;;26.33;23.43;;;12.30;99.90;;;;;;5081109;28;20488;-68
2023/04/29 11:14:12;;;;;;;28.20;23.20;;;12.30;99.90;;;;;;5081639;28;20528;-67
2023/04/29 11:16:49;;;;;;;31.53;24.83;;;12.40;99.90;;;;;;5082752;28;20777;-68
2023/04/29 11:19:17;;;;;;;27.83;22.63;;;12.40;99.90;;;;;;5082021;28;20438;-68
2023/04/29 11:21:45;;;;;;;31.57;22.10;;;12.40;99.90;;;;;;5082251;28;20461;-68
2023/04/29 11:24:14;;;;;;;26.83;21.00;;;12.40;99.90;;;;;;5082798;28;20458;-68
2023/04/29 11:26:42;;;;;;;26.00;23.20;;;12.40;99.90;;;;;;5082172;28;20454;-68
2023/04/29 11:29:10;;;;;;;24.37;21.53;;;12.60;99.90;;;;;;5081735;28;20457;-68
2023/04/29 11:31:37;;;;;;;23.80;21.23;;;12.80;99.90;;;;;;5081386;28;20477;-67
2023/04/29 11:34:07;;;;;;;26.00;20.77;;;12.90;99.90;;;;;;5081454;28;20455;-67
2023/04/29 11:36:34;;;;;;;25.13;19.50;;;13.10;99.90;;;;;;5080295;28;20455;-67
2023/04/29 11:39:02;;;;;;;20.73;18.50;;;13.20;99.90;;;;;;5080999;28;20894;-68
2023/04/29 11:41:30;;;;;;;19.43;17.33;;;13.40;99.90;;;;;;5081382;28;20458;-69
2023/04/29 11:43:57;;;;;;;20.77;17.80;;;13.50;99.90;;;;;;5080383;28;20454;-68
2023/04/29 11:46:25;;;;;;;20.23;18.23;;;13.60;11.00;;;;;;5080445;28;20480;-67
2023/04/29 11:48:51;;;;;;;18.83;16.83;;;13.60;1.00;;;;;;5080065;28;20524;-67
2023/04/29 11:51:21;;;;;;;18.87;15.90;;;13.60;99.90;;;;;;5080184;28;20482;-67
2023/04/29 11:53:48;;;;;;;22.30;15.87;;;13.60;99.90;;;;;;5079160;28;20539;-68
2023/04/29 11:56:15;;;;;;;19.20;15.20;;;13.70;99.90;;;;;;5078922;28;21012;-68
2023/04/29 11:58:43;;;;;;;19.50;16.60;;;13.80;1.00;;;;;;5078868;28;20486;-69
2023/04/29 12:01:10;;;;;;;19.10;16.80;;;13.80;1.00;;;;;;5078822;28;20830;-67
2023/04/29 12:03:37;;;;;;;16.20;14.50;;;13.80;99.90;;;;;;5079088;28;20544;-68
2023/04/29 12:06:04;;;;;;;21.40;15.20;;;13.80;4.50;;;;;;5079067;28;20505;-68
2023/04/29 12:08:33;;;;;;;18.20;15.27;;;13.80;99.90;;;;;;5078520;28;20464;-67
2023/04/29 12:11:01;;;;;;;20.13;15.90;;;13.70;1.00;;;;;;5078518;28;20458;-68
2023/04/29 12:13:29;;;;;;;21.50;15.20;;;13.60;99.90;;;;;;5078057;28;20516;-67
2023/04/29 12:15:58;;;;;;;16.00;14.40;;;13.60;99.90;;;;;;5077889;28;20458;-68
2023/04/29 12:18:26;;;;;;;16.43;14.77;;;13.60;99.90;;;;;;5078866;28;20458;-69
2023/04/29 12:20:54;;;;;;;16.70;15.10;;;13.50;99.90;;;;;;5078012;28;20789;-69
2023/04/29 12:23:22;;;;;;;17.30;14.30;;;13.50;1.00;;;;;;5078039;28;20907;-68
2023/04/29 12:25:53;;;;;;;18.37;15.00;;;13.50;1.00;;;;;;5079048;28;20553;-68
2023/04/29 12:28:20;;;;;;;15.90;14.27;;;13.40;99.90;;;;;;5078203;28;20470;-68
2023/04/29 12:30:48;;;;;;;17.37;14.90;;;13.40;1.00;;;;;;5077485;28;20460;-69
2023/04/29 12:33:21;;;;;;;15.67;13.77;;;13.50;1.00;;;;;;5077022;28;20480;-67
2023/04/29 12:35:50;;;;;;;14.77;13.20;;;13.60;99.90;;;;;;5078440;28;20454;-68